^^
No Wait Weather (KNEBELLE1) Station Historical Data
Daily Summary for May 29, 2019 Units:  English    Metric   Both
Daily Weekly Monthly Yearly Custom
  High: Low: Average:
Temperature: 71.8 °F 57.6 °F 63 °F
Dew Point: 59.83 °F 51.24 °F 56.6 °F
Humidity: 100% 51% 82%
Wind Speed: 3mph 0mph 0mph
Wind Gust: 6mph - -
Wind- - SSW
Pressure: 29.63 in 29.49 in -
Precipitation: 0.01 in    
Historical Graphs
 
 
Tabular Data for May 29, 2019
Time Temperature Dew Point Pressure Wind Wind Speed Wind Gust Humidity Rainfall Rate (Hourly) solar
00:04 58.6 °F 57.46 °F 29.51 in Calm     96% 0 in WeatherCatV3.04B91 W/m2
00:09 58.7 °F 57.56 °F 29.51 in Calm     96% 0 in WeatherCatV3.04B91 W/m2
00:14 58.6 °F 57.46 °F 29.52 in Calm     96% 0 in WeatherCatV3.04B91 W/m2
00:19 58.6 °F 57.46 °F 29.52 in Calm     96% 0 in WeatherCatV3.04B91 W/m2
00:24 58.6 °F 57.46 °F 29.52 in Calm     96% 0 in WeatherCatV3.04B91 W/m2
00:29 58.6 °F 57.46 °F 29.52 in Calm     96% 0 in WeatherCatV3.04B91 W/m2
00:34 58.4 °F 57.26 °F 29.52 in Calm     96% 0 in WeatherCatV3.04B91 W/m2
00:39 58.4 °F 57.55 °F 29.52 in Calm     97% 0 in WeatherCatV3.04B91 W/m2
00:44 58.4 °F 57.55 °F 29.52 in Calm     97% 0 in WeatherCatV3.04B91 W/m2
00:49 58.4 °F 57.55 °F 29.52 in Calm     97% 0 in WeatherCatV3.04B91 W/m2
00:54 58.4 °F 57.55 °F 29.52 in Calm     97% 0 in WeatherCatV3.04B91 W/m2
00:59 58.4 °F 57.55 °F 29.52 in Calm     97% 0 in WeatherCatV3.04B91 W/m2
01:04 58.4 °F 57.55 °F 29.52 in Calm     97% 0 in WeatherCatV3.04B91 W/m2
01:09 58.4 °F 57.55 °F 29.52 in Calm     97% 0 in WeatherCatV3.04B91 W/m2
01:14 58.4 °F 57.55 °F 29.53 in Calm     97% 0 in WeatherCatV3.04B91 W/m2
01:19 58.4 °F 57.55 °F 29.53 in Calm     97% 0 in WeatherCatV3.04B91 W/m2
01:24 58.4 °F 57.55 °F 29.53 in Calm     97% 0 in WeatherCatV3.04B91 W/m2
01:29 58.4 °F 57.55 °F 29.52 in Calm     97% 0 in WeatherCatV3.04B91 W/m2
01:34 58.4 °F 57.55 °F 29.52 in Calm     97% 0 in WeatherCatV3.04B91 W/m2
01:39 58.4 °F 57.55 °F 29.52 in Calm     97% 0 in WeatherCatV3.04B91 W/m2
01:44 58.4 °F 57.55 °F 29.52 in Calm     97% 0 in WeatherCatV3.04B91 W/m2
01:49 58.6 °F 57.75 °F 29.52 in Calm     97% 0 in WeatherCatV3.04B91 W/m2
01:54 58.6 °F 57.75 °F 29.52 in Calm     97% 0 in WeatherCatV3.04B91 W/m2
01:59 58.4 °F 57.84 °F 29.53 in Calm     98% 0 in WeatherCatV3.04B91 W/m2
02:04 58.4 °F 57.84 °F 29.53 in Calm     98% 0 in WeatherCatV3.04B91 W/m2
02:09 58.6 °F 58.03 °F 29.53 in Calm     98% 0 in WeatherCatV3.04B91 W/m2
02:14 58.6 °F 58.03 °F 29.52 in Calm     98% 0 in WeatherCatV3.04B91 W/m2
02:19 58.6 °F 58.03 °F 29.52 in Calm     98% 0 in WeatherCatV3.04B91 W/m2
02:24 58.6 °F 58.03 °F 29.52 in Calm     98% 0 in WeatherCatV3.04B91 W/m2
02:29 58.6 °F 58.03 °F 29.50 in Calm     98% 0 in WeatherCatV3.04B91 W/m2
02:34 58.6 °F 58.03 °F 29.50 in Calm     98% 0 in WeatherCatV3.04B91 W/m2
02:39 58.6 °F 58.03 °F 29.50 in Calm   2 mph 98% 0 in WeatherCatV3.04B91 W/m2
02:44 58.4 °F 57.84 °F 29.49 in Calm     98% 0 in WeatherCatV3.04B91 W/m2
02:49 58.4 °F 57.84 °F 29.49 in Calm     98% 0 in WeatherCatV3.04B91 W/m2
02:54 58.4 °F 57.84 °F 29.49 in Calm     98% 0 in WeatherCatV3.04B91 W/m2
02:59 58.4 °F 57.84 °F 29.50 in Calm     98% 0 in WeatherCatV3.04B91 W/m2
03:04 58.6 °F 58.03 °F 29.50 in Calm     98% 0 in WeatherCatV3.04B91 W/m2
03:09 58.6 °F 58.03 °F 29.50 in Calm     98% 0 in WeatherCatV3.04B91 W/m2
03:14 58.6 °F 58.03 °F 29.49 in Calm     98% 0 in WeatherCatV3.04B91 W/m2
03:19 58.6 °F 58.03 °F 29.49 in Calm     98% 0 in WeatherCatV3.04B91 W/m2
03:24 58.6 °F 58.03 °F 29.49 in Calm     98% 0 in WeatherCatV3.04B91 W/m2
03:29 58.6 °F 58.03 °F 29.49 in Calm     98% 0 in WeatherCatV3.04B91 W/m2
03:34 58.6 °F 58.03 °F 29.49 in Calm     98% 0 in WeatherCatV3.04B91 W/m2
03:39 58.6 °F 58.03 °F 29.49 in Calm     98% 0 in WeatherCatV3.04B91 W/m2
03:44 58.6 °F 58.03 °F 29.49 in Calm     98% 0 in WeatherCatV3.04B91 W/m2
03:49 58.6 °F 58.32 °F 29.49 in Calm     99% 0 in WeatherCatV3.04B91 W/m2
03:54 58.7 °F 58.42 °F 29.49 in Calm     99% 0 in WeatherCatV3.04B91 W/m2
03:59 58.7 °F 58.42 °F 29.50 in Calm     99% 0 in WeatherCatV3.04B91 W/m2
04:04 58.7 °F 58.42 °F 29.50 in Calm     99% 0 in WeatherCatV3.04B91 W/m2
04:09 58.7 °F 58.42 °F 29.50 in Calm     99% 0 in WeatherCatV3.04B91 W/m2
04:14 58.7 °F 58.42 °F 29.49 in Calm     99% 0 in WeatherCatV3.04B91 W/m2
04:19 58.7 °F 58.42 °F 29.49 in Calm     99% 0 in WeatherCatV3.04B91 W/m2
04:24 58.7 °F 58.42 °F 29.49 in Calm     99% 0 in WeatherCatV3.04B91 W/m2
04:29 58.7 °F 58.42 °F 29.50 in Calm     99% 0 in WeatherCatV3.04B91 W/m2
04:34 58.7 °F 58.42 °F 29.50 in Calm     99% 0 in WeatherCatV3.04B91 W/m2
04:39 58.7 °F 58.42 °F 29.50 in Calm     99% 0 in WeatherCatV3.04B91 W/m2
04:44 58.7 °F 58.42 °F 29.51 in Calm     99% 0 in WeatherCatV3.04B91 W/m2
04:49 58.7 °F 58.42 °F 29.51 in Calm     99% 0 in WeatherCatV3.04B91 W/m2
04:54 58.7 °F 58.42 °F 29.51 in Calm     99% 0 in WeatherCatV3.04B91 W/m2
04:59 58.7 °F 58.42 °F 29.51 in Calm     99% 0 in WeatherCatV3.04B91 W/m2
05:04 58.7 °F 58.42 °F 29.51 in Calm     99% 0 in WeatherCatV3.04B91 W/m2
05:09 58.7 °F 58.42 °F 29.51 in Calm     99% 0 in WeatherCatV3.04B91 W/m2
05:14 58.7 °F 58.42 °F 29.52 in Calm     99% 0 in WeatherCatV3.04B91 W/m2
05:19 58.7 °F 58.42 °F 29.52 in Calm     99% 0 in WeatherCatV3.04B91 W/m2
05:24 58.7 °F 58.42 °F 29.52 in Calm     99% 0 in WeatherCatV3.04B91 W/m2
05:29 58.7 °F 58.42 °F 29.52 in Calm     99% 0 in WeatherCatV3.04B91 W/m2
05:34 58.9 °F 58.62 °F 29.52 in Calm     99% 0 in WeatherCatV3.04B91 W/m2
05:39 58.9 °F 58.62 °F 29.52 in Calm     99% 0 in WeatherCatV3.04B91 W/m2
05:44 58.9 °F 58.62 °F 29.52 in Calm     99% 0 in WeatherCatV3.04B91 W/m2
05:49 58.9 °F 58.62 °F 29.52 in Calm     99% 0 in WeatherCatV3.04B91 W/m2
05:54 58.9 °F 58.62 °F 29.52 in Calm     99% 0 in WeatherCatV3.04B91 W/m2
05:59 58.9 °F 58.62 °F 29.52 in Calm     99% 0 in WeatherCatV3.04B91 W/m2
06:04 58.9 °F 58.62 °F 29.52 in Calm     99% 0 in WeatherCatV3.04B91 W/m2
06:09 58.9 °F 58.62 °F 29.52 in Calm     99% 0 in WeatherCatV3.04B91 W/m2
06:14 58.9 °F 58.62 °F 29.52 in Calm     99% 0 in WeatherCatV3.04B91 W/m2
06:19 58.9 °F 58.62 °F 29.52 in ENE 1 mph 3 mph 99% 0 in WeatherCatV3.04B91 W/m2
06:24 58.9 °F 58.62 °F 29.52 in Calm     99% 0 in WeatherCatV3.04B91 W/m2
06:29 58.9 °F 58.62 °F 29.53 in Calm     99% 0 in WeatherCatV3.04B91 W/m2
06:34 58.9 °F 58.62 °F 29.53 in Calm     99% 0 in WeatherCatV3.04B91 W/m2
06:39 58.9 °F 58.62 °F 29.53 in Calm     99% 0 in WeatherCatV3.04B91 W/m2
06:44 58.9 °F 58.62 °F 29.53 in Calm     99% 0 in WeatherCatV3.04B91 W/m2
06:49 58.9 °F 58.62 °F 29.53 in Calm     99% 0 in WeatherCatV3.04B91 W/m2
06:54 59 °F 58.72 °F 29.53 in Calm     99% 0 in WeatherCatV3.04B91 W/m2
06:59 59 °F 58.72 °F 29.53 in Calm     99% 0 in WeatherCatV3.04B91 W/m2
07:04 59 °F 58.72 °F 29.53 in Calm     99% 0 in WeatherCatV3.04B91 W/m2
07:09 59.2 °F 59.2 °F 29.53 in Calm     100% 0 in WeatherCatV3.04B91 W/m2
07:14 59.2 °F 59.2 °F 29.54 in Calm     100% 0 in WeatherCatV3.04B91 W/m2
07:19 59.3 °F 59.02 °F 29.54 in Calm     99% 0 in WeatherCatV3.04B91 W/m2
07:24 59.3 °F 59.02 °F 29.54 in Calm     99% 0 in WeatherCatV3.04B91 W/m2
07:29 59.2 °F 58.92 °F 29.54 in Calm   1 mph 99% 0 in WeatherCatV3.04B91 W/m2
07:34 59.2 °F 58.92 °F 29.54 in Calm   1 mph 99% 0 in WeatherCatV3.04B91 W/m2
07:39 59.2 °F 58.92 °F 29.54 in Calm     99% 0 in WeatherCatV3.04B91 W/m2
07:44 59.2 °F 58.92 °F 29.54 in Calm     99% 0 in WeatherCatV3.04B91 W/m2
07:49 59.2 °F 58.92 °F 29.54 in Calm     99% 0 in WeatherCatV3.04B91 W/m2
07:54 59.2 °F 58.92 °F 29.54 in Calm     99% 0 in WeatherCatV3.04B91 W/m2
07:59 59 °F 58.72 °F 29.55 in Calm     99% 0 in WeatherCatV3.04B91 W/m2
08:04 58.9 °F 58.62 °F 29.55 in Calm     99% 0 in WeatherCatV3.04B91 W/m2
08:09 58.9 °F 58.62 °F 29.55 in Calm     99% 0 in WeatherCatV3.04B91 W/m2
08:14 59 °F 58.72 °F 29.55 in Calm     99% 0 in WeatherCatV3.04B91 W/m2
08:19 58.9 °F 58.62 °F 29.55 in Calm     99% 0 in WeatherCatV3.04B91 W/m2
08:24 58.9 °F 58.62 °F 29.55 in Calm     99% 0 in WeatherCatV3.04B91 W/m2
08:29 59 °F 58.72 °F 29.55 in Calm   4 mph 99% 0 in WeatherCatV3.04B91 W/m2
08:34 59 °F 58.72 °F 29.55 in Calm     99% 0 in WeatherCatV3.04B91 W/m2
08:39 59.2 °F 58.92 °F 29.55 in Calm     99% 0 in WeatherCatV3.04B91 W/m2
08:44 59.3 °F 59.02 °F 29.56 in Calm     99% 0 in WeatherCatV3.04B91 W/m2
08:49 59.8 °F 59.52 °F 29.56 in Calm     99% 0 in WeatherCatV3.04B91 W/m2
08:54 59.8 °F 59.52 °F 29.56 in Calm   2 mph 99% 0 in WeatherCatV3.04B91 W/m2
08:59 59.8 °F 59.52 °F 29.57 in Calm     99% 0 in WeatherCatV3.04B91 W/m2
09:04 59.8 °F 59.52 °F 29.57 in Calm     99% 0 in WeatherCatV3.04B91 W/m2
09:09 59.8 °F 59.52 °F 29.57 in Calm     99% 0 in WeatherCatV3.04B91 W/m2
09:14 59.8 °F 59.23 °F 29.57 in Calm     98% 0 in WeatherCatV3.04B91 W/m2
09:19 59.9 °F 59.33 °F 29.57 in Calm     98% 0 in WeatherCatV3.04B91 W/m2
09:24 60.2 °F 59.63 °F 29.57 in Calm     98% 0 in WeatherCatV3.04B91 W/m2
09:29 60.4 °F 59.83 °F 29.57 in Calm     98% 0 in WeatherCatV3.04B91 W/m2
09:34 60.4 °F 59.54 °F 29.57 in Calm     97% 0 in WeatherCatV3.04B91 W/m2
09:39 60.2 °F 59.34 °F 29.57 in Calm   3 mph 97% 0 in WeatherCatV3.04B91 W/m2
09:44 60.4 °F 59.54 °F 29.57 in Calm     97% 0 in WeatherCatV3.04B91 W/m2
09:49 60.7 °F 59.55 °F 29.57 in Calm     96% 0 in WeatherCatV3.04B91 W/m2
09:54 61 °F 59.55 °F 29.57 in SSW 2 mph 3 mph 95% 0 in WeatherCatV3.04B91 W/m2
09:59 61.3 °F 59.56 °F 29.58 in Calm     94% 0 in WeatherCatV3.04B91 W/m2
10:04 61.5 °F 59.45 °F 29.58 in Calm   1 mph 93% 0 in WeatherCatV3.04B91 W/m2
10:09 61.6 °F 59.25 °F 29.58 in Calm     92% 0 in WeatherCatV3.04B91 W/m2
10:14 62 °F 59.03 °F 29.57 in Calm   1 mph 90% 0 in WeatherCatV3.04B91 W/m2
10:19 62.3 °F 59.01 °F 29.57 in Calm     89% 0 in WeatherCatV3.04B91 W/m2
10:24 62.4 °F 58.79 °F 29.57 in Calm     88% 0 in WeatherCatV3.04B91 W/m2
10:29 62.6 °F 58.35 °F 29.58 in Calm   3 mph 86% 0 in WeatherCatV3.04B91 W/m2
10:34 62.7 °F 58.12 °F 29.58 in Calm   1 mph 85% 0 in WeatherCatV3.04B91 W/m2
10:39 63.4 °F 58.81 °F 29.58 in Calm     85% 0 in WeatherCatV3.04B91 W/m2
10:44 63.5 °F 57.9 °F 29.57 in Calm   2 mph 82% 0 in WeatherCatV3.04B91 W/m2
10:49 63.9 °F 57.95 °F 29.57 in Calm     81% 0 in WeatherCatV3.04B91 W/m2
10:54 64 °F 57 °F 29.57 in Calm     78% 0 in WeatherCatV3.04B91 W/m2
10:59 64.2 °F 57.19 °F 29.58 in Calm     78% 0 in WeatherCatV3.04B91 W/m2
11:04 64.3 °F 56.57 °F 29.58 in Calm   2 mph 76% 0 in WeatherCatV3.04B91 W/m2
11:09 64.3 °F 55.83 °F 29.58 in Calm   2 mph 74% 0 in WeatherCatV3.04B91 W/m2
11:14 64.7 °F 56.21 °F 29.58 in Calm   1 mph 74% 0 in WeatherCatV3.04B91 W/m2
11:19 64.5 °F 56.39 °F 29.58 in Calm     75% 0 in WeatherCatV3.04B91 W/m2
11:24 64.7 °F 56.21 °F 29.58 in Calm     74% 0 in WeatherCatV3.04B91 W/m2
11:29 64.8 °F 55.93 °F 29.58 in Calm   3 mph 73% 0 in WeatherCatV3.04B91 W/m2
11:34 65 °F 56.13 °F 29.58 in Calm   2 mph 73% 0 in WeatherCatV3.04B91 W/m2
11:39 65.2 °F 56.7 °F 29.58 in Calm     74% 0 in WeatherCatV3.04B91 W/m2
11:44 65.2 °F 55.94 °F 29.58 in Calm   1 mph 72% 0 in WeatherCatV3.04B91 W/m2
11:49 65.6 °F 56.32 °F 29.58 in Calm   1 mph 72% 0 in WeatherCatV3.04B91 W/m2
11:54 66.1 °F 56.8 °F 29.58 in SW 1 mph 3 mph 72% 0 in WeatherCatV3.04B91 W/m2
11:59 65.8 °F 56.51 °F 29.59 in Calm     72% 0 in WeatherCatV3.04B91 W/m2
12:04 65.8 °F 56.9 °F 29.59 in Calm   2 mph 73% 0 in WeatherCatV3.04B91 W/m2
12:09 66 °F 56.32 °F 29.59 in Calm   4 mph 71% 0 in WeatherCatV3.04B91 W/m2
12:14 66.4 °F 57.09 °F 29.59 in Calm     72% 0 in WeatherCatV3.04B91 W/m2
12:19 66.6 °F 56.89 °F 29.59 in Calm     71% 0 in WeatherCatV3.04B91 W/m2
12:24 66.4 °F 56.31 °F 29.59 in Calm     70% 0 in WeatherCatV3.04B91 W/m2
12:29 66.6 °F 56.89 °F 29.59 in Calm     71% 0 in WeatherCatV3.04B91 W/m2
12:34 66.8 °F 56.69 °F 29.59 in Calm   1 mph 70% 0 in WeatherCatV3.04B91 W/m2
12:39 67.1 °F 57.76 °F 29.59 in Calm   1 mph 72% 0 in WeatherCatV3.04B91 W/m2
12:44 67.4 °F 57.27 °F 29.58 in Calm   4 mph 70% 0 in WeatherCatV3.04B91 W/m2
12:49 67.6 °F 56.24 °F 29.58 in Calm   1 mph 67% 0 in WeatherCatV3.04B91 W/m2
12:54 67.6 °F 55.83 °F 29.58 in Calm   1 mph 66% 0 in WeatherCatV3.04B91 W/m2
12:59 67.6 °F 56.24 °F 29.57 in Calm   1 mph 67% 0 in WeatherCatV3.04B91 W/m2
13:04 67.8 °F 56.43 °F 29.57 in Calm   6 mph 67% 0 in WeatherCatV3.04B91 W/m2
13:09 68.1 °F 56.72 °F 29.57 in SSW 2 mph 3 mph 67% 0 in WeatherCatV3.04B91 W/m2
13:14 67.9 °F 56.11 °F 29.56 in Calm     66% 0 in WeatherCatV3.04B91 W/m2
13:19 68.1 °F 56.3 °F 29.56 in Calm     66% 0 in WeatherCatV3.04B91 W/m2
13:24 67.9 °F 56.11 °F 29.56 in Calm     66% 0 in WeatherCatV3.04B91 W/m2
13:29 67.9 °F 55.69 °F 29.56 in Calm     65% 0 in WeatherCatV3.04B91 W/m2
13:34 67.8 °F 55.6 °F 29.56 in Calm     65% 0 in WeatherCatV3.04B91 W/m2
13:39 67.4 °F 55.64 °F 29.56 in Calm   1 mph 66% 0 in WeatherCatV3.04B91 W/m2
13:44 67.8 °F 56.43 °F 29.57 in Calm   3 mph 67% 0 in WeatherCatV3.04B91 W/m2
13:49 67.8 °F 55.17 °F 29.57 in Calm     64% 0 in WeatherCatV3.04B91 W/m2
13:54 67.9 °F 56.11 °F 29.57 in Calm     66% 0 in WeatherCatV3.04B91 W/m2
13:59 68.4 °F 56.59 °F 29.56 in Calm   1 mph 66% 0 in WeatherCatV3.04B91 W/m2
14:04 69.1 °F 56.4 °F 29.56 in Calm     64% 0 in WeatherCatV3.04B91 W/m2
14:09 69.3 °F 55.71 °F 29.56 in Calm   1 mph 62% 0 in WeatherCatV3.04B91 W/m2
14:14 69.4 °F 55.8 °F 29.57 in Calm     62% 0 in WeatherCatV3.04B91 W/m2
14:19 69.6 °F 55.99 °F 29.57 in Calm     62% 0 in WeatherCatV3.04B91 W/m2
14:24 69.8 °F 54.34 °F 29.57 in Calm   5 mph 58% 0 in WeatherCatV3.04B91 W/m2
14:29 69.9 °F 55.37 °F 29.57 in Calm     60% 0 in WeatherCatV3.04B91 W/m2
14:34 69.9 °F 55.37 °F 29.57 in Calm     60% 0 in WeatherCatV3.04B91 W/m2
14:39 69.8 °F 54.81 °F 29.57 in Calm     59% 0 in WeatherCatV3.04B91 W/m2
14:44 69.8 °F 55.28 °F 29.58 in Calm     60% 0 in WeatherCatV3.04B91 W/m2
14:49 69.8 °F 55.73 °F 29.58 in Calm   4 mph 61% 0 in WeatherCatV3.04B91 W/m2
14:54 70.1 °F 55.09 °F 29.58 in Calm   1 mph 59% 0 in WeatherCatV3.04B91 W/m2
14:59 70.6 °F 55.09 °F 29.59 in Calm     58% 0 in WeatherCatV3.04B91 W/m2
15:04 70.9 °F 54.41 °F 29.59 in Calm     56% 0 in WeatherCatV3.04B91 W/m2
15:09 70.9 °F 54.41 °F 29.59 in Calm   3 mph 56% 0 in WeatherCatV3.04B91 W/m2
15:14 70.6 °F 55.09 °F 29.58 in Calm     58% 0 in WeatherCatV3.04B91 W/m2
15:19 69.9 °F 54.44 °F 29.58 in Calm     58% 0 in WeatherCatV3.04B91 W/m2
15:24 69.6 °F 54.63 °F 29.58 in Calm     59% 0 in WeatherCatV3.04B91 W/m2
15:29 69.9 °F 55.37 °F 29.57 in Calm     60% 0 in WeatherCatV3.04B91 W/m2
15:34 70.4 °F 54.9 °F 29.57 in Calm     58% 0 in WeatherCatV3.04B91 W/m2
15:39 70.6 °F 54.13 °F 29.57 in Calm     56% 0 in WeatherCatV3.04B91 W/m2
15:44 71.1 °F 55.56 °F 29.57 in Calm     58% 0 in WeatherCatV3.04B91 W/m2
15:49 71.5 °F 54.47 °F 29.57 in Calm     55% 0 in WeatherCatV3.04B91 W/m2
15:54 71.1 °F 52.57 °F 29.57 in SW 1 mph 1 mph 52% 0 in WeatherCatV3.04B91 W/m2
15:59 70.6 °F 54.13 °F 29.56 in Calm     56% 0 in WeatherCatV3.04B91 W/m2
16:04 70.9 °F 55.37 °F 29.56 in Calm     58% 0 in WeatherCatV3.04B91 W/m2
16:09 71.6 °F 54.56 °F 29.56 in Calm   1 mph 55% 0 in WeatherCatV3.04B91 W/m2
16:14 71.8 °F 53.21 °F 29.56 in Calm   1 mph 52% 0 in WeatherCatV3.04B91 W/m2
16:19 71.8 °F 52.68 °F 29.56 in Calm   1 mph 51% 0 in WeatherCatV3.04B91 W/m2
16:24 71.5 °F 52.94 °F 29.56 in Calm   2 mph 52% 0 in WeatherCatV3.04B91 W/m2
16:29 70.9 °F 54.41 °F 29.57 in Calm   1 mph 56% 0 in WeatherCatV3.04B91 W/m2
16:34 70.3 °F 54.81 °F 29.57 in Calm   4 mph 58% 0 in WeatherCatV3.04B91 W/m2
16:39 69.6 °F 54.63 °F 29.57 in Calm     59% 0 in WeatherCatV3.04B91 W/m2
16:44 69.3 °F 54.81 °F 29.57 in Calm   3 mph 60% 0 in WeatherCatV3.04B91 W/m2
16:49 69.3 °F 54.81 °F 29.57 in Calm   1 mph 60% 0 in WeatherCatV3.04B91 W/m2
16:54 69.3 °F 54.34 °F 29.57 in SW 2 mph 4 mph 59% 0 in WeatherCatV3.04B91 W/m2
16:59 69.1 °F 54.62 °F 29.57 in South 2 mph 2 mph 60% 0 in WeatherCatV3.04B91 W/m2
17:04 69.1 °F 55.07 °F 29.57 in Calm     61% 0 in WeatherCatV3.04B91 W/m2
17:09 69.3 °F 54.81 °F 29.57 in Calm     60% 0 in WeatherCatV3.04B91 W/m2
17:14 69.6 °F 55.09 °F 29.56 in Calm   1 mph 60% 0 in WeatherCatV3.04B91 W/m2
17:19 70.1 °F 54.15 °F 29.56 in Calm     57% 0 in WeatherCatV3.04B91 W/m2
17:24 70.1 °F 52.67 °F 29.56 in Calm   1 mph 54% 0 in WeatherCatV3.04B91 W/m2
17:29 69.8 °F 52.89 °F 29.56 in Calm     55% 0 in WeatherCatV3.04B91 W/m2
17:34 69.4 °F 53.01 °F 29.56 in Calm   2 mph 56% 0 in WeatherCatV3.04B91 W/m2
17:39 69.3 °F 52.92 °F 29.56 in SW 3 mph 3 mph 56% 0 in WeatherCatV3.04B91 W/m2
17:44 68.9 °F 53.03 °F 29.56 in Calm   2 mph 57% 0 in WeatherCatV3.04B91 W/m2
17:49 68.8 °F 52.93 °F 29.56 in Calm     57% 0 in WeatherCatV3.04B91 W/m2
17:54 68.6 °F 53.22 °F 29.56 in Calm   4 mph 58% 0 in WeatherCatV3.04B91 W/m2
17:59 68.9 °F 53.5 °F 29.57 in Calm   2 mph 58% 0 in WeatherCatV3.04B91 W/m2
18:04 69.1 °F 53.21 °F 29.57 in Calm     57% 0 in WeatherCatV3.04B91 W/m2
18:09 69.1 °F 53.21 °F 29.57 in Calm   1 mph 57% 0 in WeatherCatV3.04B91 W/m2
18:14 69.1 °F 51.24 °F 29.57 in Calm   1 mph 53% 0 in WeatherCatV3.04B91 W/m2
18:19 69.1 °F 51.74 °F 29.57 in Calm   2 mph 54% 0 in WeatherCatV3.04B91 W/m2
18:24 69.1 °F 52.73 °F 29.57 in Calm     56% 0 in WeatherCatV3.04B91 W/m2
18:29 68.8 °F 52.93 °F 29.57 in Calm     57% 0 in WeatherCatV3.04B91 W/m2
18:34 68.4 °F 53.5 °F 29.57 in Calm   4 mph 59% 0 in WeatherCatV3.04B91 W/m2
18:39 68.1 °F 53.68 °F 29.57 in Calm     60% 0 in WeatherCatV3.04B91 W/m2
18:44 67.6 °F 54.11 °F 29.57 in Calm     62% 0 in WeatherCatV3.04B91 W/m2
18:49 67.3 °F 54.69 °F 29.57 in Calm     64% 0 in WeatherCatV3.04B91 W/m2
18:54 66.9 °F 54.74 °F 29.57 in Calm     65% 0 in WeatherCatV3.04B91 W/m2
18:59 66.6 °F 55.29 °F 29.57 in Calm   1 mph 67% 0 in WeatherCatV3.04B91 W/m2
19:04 66.4 °F 55.1 °F 29.57 in Calm     67% 0 in WeatherCatV3.04B91 W/m2
19:09 66.3 °F 55.01 °F 29.57 in Calm     67% 0 in WeatherCatV3.04B91 W/m2
19:14 66.1 °F 54.81 °F 29.58 in Calm     67% 0 in WeatherCatV3.04B91 W/m2
19:19 66.1 °F 55.22 °F 29.58 in Calm     68% 0 in WeatherCatV3.04B91 W/m2
19:24 66.1 °F 55.22 °F 29.58 in Calm     68% 0 in WeatherCatV3.04B91 W/m2
19:29 66 °F 55.53 °F 29.58 in Calm   1 mph 69% 0 in WeatherCatV3.04B91 W/m2
19:34 66 °F 55.93 °F 29.58 in Calm     70% 0 in WeatherCatV3.04B91 W/m2
19:39 66 °F 55.93 °F 29.58 in Calm     70% 0 in WeatherCatV3.04B91 W/m2
19:44 66 °F 55.93 °F 29.59 in Calm     70% 0 in WeatherCatV3.04B91 W/m2
19:49 65.8 °F 56.13 °F 29.59 in Calm   1 mph 71% 0 in WeatherCatV3.04B91 W/m2
19:54 65.5 °F 55.84 °F 29.59 in Calm     71% 0 in WeatherCatV3.04B91 W/m2
19:59 65.3 °F 56.03 °F 29.60 in Calm     72% 0 in WeatherCatV3.04B91 W/m2
20:04 65.2 °F 56.32 °F 29.60 in Calm   2 mph 73% 0 in WeatherCatV3.04B91 W/m2
20:09 65 °F 56.13 °F 29.60 in Calm     73% 0 in WeatherCatV3.04B91 W/m2
20:14 64.8 °F 56.31 °F 29.60 in Calm     74% 0 in WeatherCatV3.04B91 W/m2
20:19 64.7 °F 56.59 °F 29.60 in Calm     75% 0 in WeatherCatV3.04B91 W/m2
20:24 64.5 °F 56.39 °F 29.60 in Calm     75% 0 in WeatherCatV3.04B91 W/m2
20:29 64.5 °F 56.76 °F 29.60 in Calm     76% 0 in WeatherCatV3.04B91 W/m2
20:34 64.3 °F 56.57 °F 29.60 in Calm   1 mph 76% 0 in WeatherCatV3.04B91 W/m2
20:39 64.2 °F 56.47 °F 29.60 in Calm     76% 0 in WeatherCatV3.04B91 W/m2
20:44 63.9 °F 56.18 °F 29.60 in Calm     76% 0 in WeatherCatV3.04B91 W/m2
20:49 63.9 °F 55.81 °F 29.60 in Calm   1 mph 75% 0 in WeatherCatV3.04B91 W/m2
20:54 63.7 °F 55.62 °F 29.60 in Calm     75% 0 in WeatherCatV3.04B91 W/m2
20:59 63.7 °F 55.62 °F 29.61 in Calm     75% 0 in WeatherCatV3.04B91 W/m2
21:04 63.7 °F 55.62 °F 29.61 in Calm     75% 0 in WeatherCatV3.04B91 W/m2
21:09 63.7 °F 55.62 °F 29.61 in Calm     75% 0 in WeatherCatV3.04B91 W/m2
21:14 63.7 °F 55.62 °F 29.61 in Calm     75% 0 in WeatherCatV3.04B91 W/m2
21:19 63.4 °F 55.33 °F 29.61 in Calm     75% 0 in WeatherCatV3.04B91 W/m2
21:24 63.2 °F 55.14 °F 29.61 in Calm     75% 0 in WeatherCatV3.04B91 W/m2
21:29 63.1 °F 55.04 °F 29.61 in Calm     75% 0 in WeatherCatV3.04B91 W/m2
21:34 62.9 °F 55.21 °F 29.61 in Calm   1 mph 76% 0 in WeatherCatV3.04B91 W/m2
21:39 62.6 °F 54.92 °F 29.61 in Calm     76% 0 in WeatherCatV3.04B91 W/m2
21:44 62.4 °F 55.09 °F 29.62 in Calm     77% 0 in WeatherCatV3.04B91 W/m2
21:49 62.3 °F 54.99 °F 29.62 in Calm     77% 0 in WeatherCatV3.04B91 W/m2
21:54 62 °F 55.06 °F 29.62 in Calm   1 mph 78% 0 in WeatherCatV3.04B91 W/m2
21:59 61.6 °F 54.67 °F 29.63 in Calm     78% 0 in WeatherCatV3.04B91 W/m2
22:04 61.5 °F 54.57 °F 29.63 in Calm     78% 0 in WeatherCatV3.04B91 W/m2
22:09 61.2 °F 54.63 °F 29.63 in Calm     79% 0 in WeatherCatV3.04B91 W/m2
22:14 61 °F 54.44 °F 29.63 in Calm     79% 0 in WeatherCatV3.04B91 W/m2
22:19 60.9 °F 54.34 °F 29.63 in Calm     79% 0 in WeatherCatV3.04B91 W/m2
22:24 60.7 °F 54.49 °F 29.63 in Calm     80% 0 in WeatherCatV3.04B91 W/m2
22:29 60.5 °F 54.64 °F 29.63 in Calm     81% 0 in WeatherCatV3.04B91 W/m2
22:34 60.4 °F 54.54 °F 29.63 in Calm     81% 0 in WeatherCatV3.04B91 W/m2
22:39 60.1 °F 54.58 °F 29.63 in Calm     82% 0 in WeatherCatV3.04B91 W/m2
22:44 59.9 °F 54.72 °F 29.63 in Calm     83% 0 in WeatherCatV3.04B91 W/m2
22:49 59.8 °F 54.62 °F 29.63 in Calm     83% 0 in WeatherCatV3.04B91 W/m2
22:54 59.6 °F 54.76 °F 29.63 in Calm     84% 0 in WeatherCatV3.04B91 W/m2
22:59 59.5 °F 54.66 °F 29.63 in Calm     84% 0 in WeatherCatV3.04B91 W/m2
23:04 59.3 °F 54.79 °F 29.63 in Calm     85% 0 in WeatherCatV3.04B91 W/m2
23:09 59.2 °F 54.69 °F 29.63 in Calm     85% 0 in WeatherCatV3.04B91 W/m2
23:14 59 °F 54.49 °F 29.62 in Calm     85% 0 in WeatherCatV3.04B91 W/m2
23:19 58.7 °F 54.52 °F 29.62 in Calm     86% 0 in WeatherCatV3.04B91 W/m2
23:24 58.6 °F 54.42 °F 29.62 in Calm     86% 0 in WeatherCatV3.04B91 W/m2
23:29 58.4 °F 54.54 °F 29.62 in Calm     87% 0 in WeatherCatV3.04B91 W/m2
23:34 58.3 °F 54.44 °F 29.62 in Calm     87% 0 in WeatherCatV3.04B91 W/m2
23:39 58.1 °F 54.56 °F 29.62 in Calm     88% 0 in WeatherCatV3.04B91 W/m2
23:44 58 °F 54.46 °F 29.62 in Calm     88% 0 in WeatherCatV3.04B91 W/m2
23:49 57.6 °F 54.38 °F 29.62 in Calm     89% 0 in WeatherCatV3.04B91 W/m2
23:54 57.6 °F 54.38 °F 29.62 in Calm     89% 0 in WeatherCatV3.04B91 W/m2
23:59 57.6 °F 54.38 °F 29.62 in Calm     89% 0 in WeatherCatV3.04B91 W/m2
Bellevue, Nebraska, USA
Compliments of Weather Underground - 3.25 mb